sensor_id;sensor_type;location;lat;lon;timestamp;P1;durP1;ratioP1;P2;durP2;ratioP2
70576;SDS011;58138;43.138;24.702;2022-08-14T00:06:41;16.15;;;13.35;;
70576;SDS011;58138;43.138;24.702;2022-08-14T00:09:07;14.98;;;13.20;;
70576;SDS011;58138;43.138;24.702;2022-08-14T00:11:33;13.48;;;11.75;;
70576;SDS011;58138;43.138;24.702;2022-08-14T00:13:59;16.15;;;13.20;;
70576;SDS011;58138;43.138;24.702;2022-08-14T00:16:25;13.15;;;11.60;;
70576;SDS011;58138;43.138;24.702;2022-08-14T00:18:51;19.63;;;11.93;;
70576;SDS011;58138;43.138;24.702;2022-08-14T00:21:17;14.82;;;12.52;;
70576;SDS011;58138;43.138;24.702;2022-08-14T00:33:02;21.60;;;13.20;;
70576;SDS011;58138;43.138;24.702;2022-08-14T00:38:04;19.55;;;12.65;;
70576;SDS011;58138;43.138;24.702;2022-08-14T00:40:29;14.50;;;12.00;;
70576;SDS011;58138;43.138;24.702;2022-08-14T00:42:55;17.77;;;12.77;;
70576;SDS011;58138;43.138;24.702;2022-08-14T00:45:20;19.55;;;13.80;;
70576;SDS011;58138;43.138;24.702;2022-08-14T00:47:46;15.07;;;12.45;;
70576;SDS011;58138;43.138;24.702;2022-08-14T00:50:15;16.77;;;12.77;;
70576;SDS011;58138;43.138;24.702;2022-08-14T00:52:42;13.52;;;11.85;;
70576;SDS011;58138;43.138;24.702;2022-08-14T00:55:10;14.65;;;12.00;;
70576;SDS011;58138;43.138;24.702;2022-08-14T00:57:36;16.85;;;12.85;;
70576;SDS011;58138;43.138;24.702;2022-08-14T01:00:04;15.48;;;12.27;;
70576;SDS011;58138;43.138;24.702;2022-08-14T01:02:36;16.73;;;12.52;;
70576;SDS011;58138;43.138;24.702;2022-08-14T01:07:38;14.20;;;12.80;;
70576;SDS011;58138;43.138;24.702;2022-08-14T01:10:05;15.88;;;12.43;;
70576;SDS011;58138;43.138;24.702;2022-08-14T01:12:31;13.20;;;11.88;;
70576;SDS011;58138;43.138;24.702;2022-08-14T01:15:04;17.25;;;11.52;;
70576;SDS011;58138;43.138;24.702;2022-08-14T01:27:51;16.00;;;12.88;;
70576;SDS011;58138;43.138;24.702;2022-08-14T01:30:19;17.25;;;12.93;;
70576;SDS011;58138;43.138;24.702;2022-08-14T01:40:33;16.77;;;14.43;;
70576;SDS011;58138;43.138;24.702;2022-08-14T01:42:59;14.68;;;12.35;;
70576;SDS011;58138;43.138;24.702;2022-08-14T01:45:24;14.98;;;13.18;;
70576;SDS011;58138;43.138;24.702;2022-08-14T01:47:50;14.93;;;12.95;;
70576;SDS011;58138;43.138;24.702;2022-08-14T01:50:15;15.00;;;13.38;;
70576;SDS011;58138;43.138;24.702;2022-08-14T01:52:42;15.90;;;12.98;;
70576;SDS011;58138;43.138;24.702;2022-08-14T01:55:07;15.27;;;13.52;;
70576;SDS011;58138;43.138;24.702;2022-08-14T01:57:36;17.60;;;13.50;;
70576;SDS011;58138;43.138;24.702;2022-08-14T02:00:06;15.43;;;13.00;;
70576;SDS011;58138;43.138;24.702;2022-08-14T02:02:36;14.13;;;12.55;;
70576;SDS011;58138;43.138;24.702;2022-08-14T02:05:03;16.58;;;12.13;;
70576;SDS011;58138;43.138;24.702;2022-08-14T02:07:29;13.85;;;12.45;;
70576;SDS011;58138;43.138;24.702;2022-08-14T02:09:56;15.13;;;12.40;;
70576;SDS011;58138;43.138;24.702;2022-08-14T02:12:22;16.48;;;12.35;;
70576;SDS011;58138;43.138;24.702;2022-08-14T02:14:48;14.45;;;13.05;;
70576;SDS011;58138;43.138;24.702;2022-08-14T02:17:14;17.60;;;12.68;;
70576;SDS011;58138;43.138;24.702;2022-08-14T02:19:39;14.68;;;11.98;;
70576;SDS011;58138;43.138;24.702;2022-08-14T02:22:05;15.25;;;12.13;;
70576;SDS011;58138;43.138;24.702;2022-08-14T02:24:30;14.48;;;12.00;;
70576;SDS011;58138;43.138;24.702;2022-08-14T02:29:29;13.80;;;10.68;;
70576;SDS011;58138;43.138;24.702;2022-08-14T02:31:57;15.55;;;11.73;;
70576;SDS011;58138;43.138;24.702;2022-08-14T02:37:18;14.02;;;12.35;;
70576;SDS011;58138;43.138;24.702;2022-08-14T02:39:44;15.25;;;12.70;;
70576;SDS011;58138;43.138;24.702;2022-08-14T02:42:15;14.02;;;12.38;;
70576;SDS011;58138;43.138;24.702;2022-08-14T02:44:43;13.55;;;12.15;;
70576;SDS011;58138;43.138;24.702;2022-08-14T02:47:08;15.10;;;11.82;;
70576;SDS011;58138;43.138;24.702;2022-08-14T02:49:34;17.55;;;13.07;;
70576;SDS011;58138;43.138;24.702;2022-08-14T02:52:00;14.40;;;12.43;;
70576;SDS011;58138;43.138;24.702;2022-08-14T02:54:28;13.38;;;12.07;;
70576;SDS011;58138;43.138;24.702;2022-08-14T02:56:56;16.92;;;13.07;;
70576;SDS011;58138;43.138;24.702;2022-08-14T02:59:22;14.38;;;12.32;;
70576;SDS011;58138;43.138;24.702;2022-08-14T03:01:49;13.68;;;12.05;;
70576;SDS011;58138;43.138;24.702;2022-08-14T03:04:18;15.95;;;12.57;;
70576;SDS011;58138;43.138;24.702;2022-08-14T03:30:00;16.60;;;13.38;;
70576;SDS011;58138;43.138;24.702;2022-08-14T03:32:28;19.67;;;14.30;;
70576;SDS011;58138;43.138;24.702;2022-08-14T03:34:57;17.40;;;13.65;;
70576;SDS011;58138;43.138;24.702;2022-08-14T03:37:23;13.80;;;11.63;;
70576;SDS011;58138;43.138;24.702;2022-08-14T03:39:51;14.55;;;13.05;;
70576;SDS011;58138;43.138;24.702;2022-08-14T03:42:17;17.30;;;12.57;;
70576;SDS011;58138;43.138;24.702;2022-08-14T03:44:43;17.80;;;13.35;;
70576;SDS011;58138;43.138;24.702;2022-08-14T03:47:09;14.57;;;13.18;;
70576;SDS011;58138;43.138;24.702;2022-08-14T03:49:36;18.65;;;15.50;;
70576;SDS011;58138;43.138;24.702;2022-08-14T03:52:02;17.80;;;14.80;;
70576;SDS011;58138;43.138;24.702;2022-08-14T03:54:28;16.08;;;12.90;;
70576;SDS011;58138;43.138;24.702;2022-08-14T03:56:54;15.00;;;13.27;;
70576;SDS011;58138;43.138;24.702;2022-08-14T03:59:24;17.92;;;13.02;;
70576;SDS011;58138;43.138;24.702;2022-08-14T04:01:50;15.50;;;13.25;;
70576;SDS011;58138;43.138;24.702;2022-08-14T04:04:16;13.65;;;12.23;;
70576;SDS011;58138;43.138;24.702;2022-08-14T04:06:42;16.48;;;13.88;;
70576;SDS011;58138;43.138;24.702;2022-08-14T04:09:07;19.05;;;12.95;;
70576;SDS011;58138;43.138;24.702;2022-08-14T04:11:33;23.05;;;14.10;;
70576;SDS011;58138;43.138;24.702;2022-08-14T04:14:00;15.55;;;13.95;;
70576;SDS011;58138;43.138;24.702;2022-08-14T04:16:26;13.70;;;12.30;;
70576;SDS011;58138;43.138;24.702;2022-08-14T04:18:52;14.13;;;11.90;;
70576;SDS011;58138;43.138;24.702;2022-08-14T04:21:20;21.42;;;12.43;;
70576;SDS011;58138;43.138;24.702;2022-08-14T04:23:50;15.50;;;12.50;;
70576;SDS011;58138;43.138;24.702;2022-08-14T04:26:16;15.45;;;13.18;;
70576;SDS011;58138;43.138;24.702;2022-08-14T04:28:43;15.73;;;12.75;;
70576;SDS011;58138;43.138;24.702;2022-08-14T04:31:09;12.93;;;11.73;;
70576;SDS011;58138;43.138;24.702;2022-08-14T04:33:35;14.63;;;11.90;;
70576;SDS011;58138;43.138;24.702;2022-08-14T04:36:01;15.65;;;11.50;;
70576;SDS011;58138;43.138;24.702;2022-08-14T04:38:27;16.67;;;12.35;;
70576;SDS011;58138;43.138;24.702;2022-08-14T04:41:12;16.27;;;12.85;;
70576;SDS011;58138;43.138;24.702;2022-08-14T04:43:56;14.57;;;12.40;;
70576;SDS011;58138;43.138;24.702;2022-08-14T04:46:22;14.98;;;13.38;;
70576;SDS011;58138;43.138;24.702;2022-08-14T04:48:49;17.02;;;13.75;;
70576;SDS011;58138;43.138;24.702;2022-08-14T04:51:16;20.05;;;14.27;;
70576;SDS011;58138;43.138;24.702;2022-08-14T04:53:44;13.95;;;12.30;;
70576;SDS011;58138;43.138;24.702;2022-08-14T04:56:11;15.40;;;12.32;;
70576;SDS011;58138;43.138;24.702;2022-08-14T04:58:39;14.55;;;11.68;;
70576;SDS011;58138;43.138;24.702;2022-08-14T05:01:06;23.38;;;12.52;;
70576;SDS011;58138;43.138;24.702;2022-08-14T05:03:33;14.80;;;11.85;;
70576;SDS011;58138;43.138;24.702;2022-08-14T05:06:01;22.25;;;12.82;;
70576;SDS011;58138;43.138;24.702;2022-08-14T05:08:35;14.77;;;12.95;;
70576;SDS011;58138;43.138;24.702;2022-08-14T05:11:02;18.08;;;13.25;;
70576;SDS011;58138;43.138;24.702;2022-08-14T05:13:30;15.10;;;11.85;;
70576;SDS011;58138;43.138;24.702;2022-08-14T05:15:57;14.70;;;13.20;;
70576;SDS011;58138;43.138;24.702;2022-08-14T05:18:25;14.48;;;12.60;;
70576;SDS011;58138;43.138;24.702;2022-08-14T05:20:57;14.77;;;11.77;;
70576;SDS011;58138;43.138;24.702;2022-08-14T05:23:24;12.93;;;11.63;;
70576;SDS011;58138;43.138;24.702;2022-08-14T05:25:52;14.02;;;12.63;;
70576;SDS011;58138;43.138;24.702;2022-08-14T05:28:20;13.77;;;12.35;;
70576;SDS011;58138;43.138;24.702;2022-08-14T05:30:48;14.57;;;12.77;;
70576;SDS011;58138;43.138;24.702;2022-08-14T05:35:51;13.82;;;12.27;;
70576;SDS011;58138;43.138;24.702;2022-08-14T05:51:10;22.70;;;13.82;;
70576;SDS011;58138;43.138;24.702;2022-08-14T05:53:37;14.05;;;12.52;;
70576;SDS011;58138;43.138;24.702;2022-08-14T05:56:03;12.85;;;11.38;;
70576;SDS011;58138;43.138;24.702;2022-08-14T05:58:29;16.58;;;12.20;;
70576;SDS011;58138;43.138;24.702;2022-08-14T06:00:54;13.38;;;11.43;;
70576;SDS011;58138;43.138;24.702;2022-08-14T06:03:21;13.48;;;12.07;;
70576;SDS011;58138;43.138;24.702;2022-08-14T06:05:48;17.10;;;12.32;;
70576;SDS011;58138;43.138;24.702;2022-08-14T06:08:16;14.57;;;12.05;;
70576;SDS011;58138;43.138;24.702;2022-08-14T06:10:53;16.95;;;12.80;;
70576;SDS011;58138;43.138;24.702;2022-08-14T06:13:20;14.57;;;12.88;;
70576;SDS011;58138;43.138;24.702;2022-08-14T06:15:46;20.50;;;12.45;;
70576;SDS011;58138;43.138;24.702;2022-08-14T06:18:13;23.33;;;12.70;;
70576;SDS011;58138;43.138;24.702;2022-08-14T06:20:39;17.52;;;11.38;;
70576;SDS011;58138;43.138;24.702;2022-08-14T06:23:05;19.10;;;12.32;;
70576;SDS011;58138;43.138;24.702;2022-08-14T06:25:30;19.95;;;16.30;;
70576;SDS011;58138;43.138;24.702;2022-08-14T06:27:56;14.05;;;11.80;;
70576;SDS011;58138;43.138;24.702;2022-08-14T06:30:24;13.57;;;12.07;;
70576;SDS011;58138;43.138;24.702;2022-08-14T06:32:51;14.07;;;11.43;;
70576;SDS011;58138;43.138;24.702;2022-08-14T06:35:17;16.15;;;13.05;;
70576;SDS011;58138;43.138;24.702;2022-08-14T06:40:26;18.80;;;14.65;;
70576;SDS011;58138;43.138;24.702;2022-08-14T06:50:43;20.38;;;14.43;;
70576;SDS011;58138;43.138;24.702;2022-08-14T06:53:09;20.23;;;14.98;;
70576;SDS011;58138;43.138;24.702;2022-08-14T06:55:36;13.65;;;11.95;;
70576;SDS011;58138;43.138;24.702;2022-08-14T06:58:03;16.08;;;12.93;;
70576;SDS011;58138;43.138;24.702;2022-08-14T07:00:29;14.68;;;12.73;;
70576;SDS011;58138;43.138;24.702;2022-08-14T07:02:55;15.25;;;12.27;;
70576;SDS011;58138;43.138;24.702;2022-08-14T07:05:39;13.15;;;11.75;;
70576;SDS011;58138;43.138;24.702;2022-08-14T07:10:51;15.00;;;11.70;;
70576;SDS011;58138;43.138;24.702;2022-08-14T07:13:18;14.23;;;11.48;;
70576;SDS011;58138;43.138;24.702;2022-08-14T07:15:45;13.10;;;11.43;;
70576;SDS011;58138;43.138;24.702;2022-08-14T07:18:18;14.95;;;12.10;;
70576;SDS011;58138;43.138;24.702;2022-08-14T07:20:46;15.45;;;13.95;;
70576;SDS011;58138;43.138;24.702;2022-08-14T07:23:12;14.23;;;11.93;;
70576;SDS011;58138;43.138;24.702;2022-08-14T07:25:38;13.27;;;11.70;;
70576;SDS011;58138;43.138;24.702;2022-08-14T07:28:13;12.88;;;11.65;;
70576;SDS011;58138;43.138;24.702;2022-08-14T07:30:39;16.00;;;12.63;;
70576;SDS011;58138;43.138;24.702;2022-08-14T07:33:05;17.67;;;12.85;;
70576;SDS011;58138;43.138;24.702;2022-08-14T07:35:32;13.35;;;11.52;;
70576;SDS011;58138;43.138;24.702;2022-08-14T07:37:58;13.32;;;11.90;;
70576;SDS011;58138;43.138;24.702;2022-08-14T07:40:23;20.60;;;18.42;;
70576;SDS011;58138;43.138;24.702;2022-08-14T07:42:49;15.30;;;12.57;;
70576;SDS011;58138;43.138;24.702;2022-08-14T07:45:15;14.07;;;12.18;;
70576;SDS011;58138;43.138;24.702;2022-08-14T07:47:41;12.75;;;11.45;;
70576;SDS011;58138;43.138;24.702;2022-08-14T07:50:11;13.48;;;12.07;;
70576;SDS011;58138;43.138;24.702;2022-08-14T07:52:38;16.92;;;12.10;;
70576;SDS011;58138;43.138;24.702;2022-08-14T07:55:04;14.85;;;12.65;;
70576;SDS011;58138;43.138;24.702;2022-08-14T07:57:30;13.73;;;12.32;;
70576;SDS011;58138;43.138;24.702;2022-08-14T07:59:56;13.00;;;11.70;;
70576;SDS011;58138;43.138;24.702;2022-08-14T08:02:21;13.75;;;11.85;;
70576;SDS011;58138;43.138;24.702;2022-08-14T08:04:49;14.52;;;12.45;;
70576;SDS011;58138;43.138;24.702;2022-08-14T08:07:17;14.52;;;13.00;;
70576;SDS011;58138;43.138;24.702;2022-08-14T08:09:43;14.02;;;12.63;;
70576;SDS011;58138;43.138;24.702;2022-08-14T08:12:14;13.85;;;12.45;;
70576;SDS011;58138;43.138;24.702;2022-08-14T08:14:43;16.08;;;12.38;;
70576;SDS011;58138;43.138;24.702;2022-08-14T08:17:09;12.80;;;11.50;;
70576;SDS011;58138;43.138;24.702;2022-08-14T08:19:34;15.95;;;13.07;;
70576;SDS011;58138;43.138;24.702;2022-08-14T08:22:01;14.50;;;12.90;;
70576;SDS011;58138;43.138;24.702;2022-08-14T08:24:27;15.30;;;13.70;;
70576;SDS011;58138;43.138;24.702;2022-08-14T08:26:53;16.48;;;14.73;;
70576;SDS011;58138;43.138;24.702;2022-08-14T08:29:20;16.92;;;13.05;;
70576;SDS011;58138;43.138;24.702;2022-08-14T08:31:50;14.50;;;12.65;;
70576;SDS011;58138;43.138;24.702;2022-08-14T08:34:18;17.67;;;13.63;;
70576;SDS011;58138;43.138;24.702;2022-08-14T08:36:44;15.65;;;12.50;;
70576;SDS011;58138;43.138;24.702;2022-08-14T08:39:10;13.82;;;12.43;;
70576;SDS011;58138;43.138;24.702;2022-08-14T08:41:43;15.40;;;12.40;;
70576;SDS011;58138;43.138;24.702;2022-08-14T08:44:11;12.35;;;11.05;;
70576;SDS011;58138;43.138;24.702;2022-08-14T08:46:37;14.15;;;11.65;;
70576;SDS011;58138;43.138;24.702;2022-08-14T08:49:04;11.88;;;10.60;;
70576;SDS011;58138;43.138;24.702;2022-08-14T08:53:57;13.88;;;12.48;;
70576;SDS011;58138;43.138;24.702;2022-08-14T08:56:44;13.45;;;12.05;;
70576;SDS011;58138;43.138;24.702;2022-08-14T08:59:29;13.85;;;11.70;;
70576;SDS011;58138;43.138;24.702;2022-08-14T09:01:57;12.68;;;11.25;;
70576;SDS011;58138;43.138;24.702;2022-08-14T09:04:29;15.27;;;12.55;;
70576;SDS011;58138;43.138;24.702;2022-08-14T09:06:59;13.60;;;12.20;;
70576;SDS011;58138;43.138;24.702;2022-08-14T09:09:25;13.13;;;11.73;;
70576;SDS011;58138;43.138;24.702;2022-08-14T09:11:52;14.15;;;11.52;;
70576;SDS011;58138;43.138;24.702;2022-08-14T09:14:20;14.25;;;11.73;;
70576;SDS011;58138;43.138;24.702;2022-08-14T09:16:53;13.80;;;11.57;;
70576;SDS011;58138;43.138;24.702;2022-08-14T09:19:19;12.85;;;11.55;;
70576;SDS011;58138;43.138;24.702;2022-08-14T09:21:45;13.05;;;11.10;;
70576;SDS011;58138;43.138;24.702;2022-08-14T09:24:10;13.40;;;11.35;;
70576;SDS011;58138;43.138;24.702;2022-08-14T09:26:36;12.98;;;11.68;;
70576;SDS011;58138;43.138;24.702;2022-08-14T09:29:03;14.13;;;11.80;;
70576;SDS011;58138;43.138;24.702;2022-08-14T09:31:29;13.35;;;11.95;;
70576;SDS011;58138;43.138;24.702;2022-08-14T09:52:49;10.98;;;9.90;;
70576;SDS011;58138;43.138;24.702;2022-08-14T09:55:27;11.70;;;10.25;;
70576;SDS011;58138;43.138;24.702;2022-08-14T09:58:34;11.02;;;9.93;;
70576;SDS011;58138;43.138;24.702;2022-08-14T10:00:49;11.02;;;9.95;;
70576;SDS011;58138;43.138;24.702;2022-08-14T10:08:39;10.77;;;9.13;;
70576;SDS011;58138;43.138;24.702;2022-08-14T10:11:19;9.15;;;8.25;;
70576;SDS011;58138;43.138;24.702;2022-08-14T10:13:45;9.13;;;7.93;;
70576;SDS011;58138;43.138;24.702;2022-08-14T10:16:17;8.88;;;8.07;;
70576;SDS011;58138;43.138;24.702;2022-08-14T10:18:42;8.93;;;7.85;;
70576;SDS011;58138;43.138;24.702;2022-08-14T10:21:09;8.82;;;7.53;;
70576;SDS011;58138;43.138;24.702;2022-08-14T10:26:07;7.18;;;6.47;;
70576;SDS011;58138;43.138;24.702;2022-08-14T10:28:40;6.50;;;5.90;;
70576;SDS011;58138;43.138;24.702;2022-08-14T10:31:15;7.35;;;6.18;;
70576;SDS011;58138;43.138;24.702;2022-08-14T10:33:57;8.65;;;5.18;;
70576;SDS011;58138;43.138;24.702;2022-08-14T10:36:35;7.75;;;6.93;;
70576;SDS011;58138;43.138;24.702;2022-08-14T10:39:04;7.75;;;6.82;;
70576;SDS011;58138;43.138;24.702;2022-08-14T10:41:40;8.43;;;7.38;;
70576;SDS011;58138;43.138;24.702;2022-08-14T10:44:16;8.60;;;6.97;;
70576;SDS011;58138;43.138;24.702;2022-08-14T10:46:44;8.20;;;7.35;;
70576;SDS011;58138;43.138;24.702;2022-08-14T10:49:23;8.45;;;7.65;;
70576;SDS011;58138;43.138;24.702;2022-08-14T10:51:57;8.45;;;7.32;;
70576;SDS011;58138;43.138;24.702;2022-08-14T10:54:40;8.05;;;7.25;;
70576;SDS011;58138;43.138;24.702;2022-08-14T10:57:16;10.30;;;6.97;;
70576;SDS011;58138;43.138;24.702;2022-08-14T10:59:53;8.23;;;7.38;;
70576;SDS011;58138;43.138;24.702;2022-08-14T11:02:26;9.80;;;7.80;;
70576;SDS011;58138;43.138;24.702;2022-08-14T11:07:35;7.25;;;6.55;;
70576;SDS011;58138;43.138;24.702;2022-08-14T11:10:08;7.68;;;6.97;;
70576;SDS011;58138;43.138;24.702;2022-08-14T11:12:43;8.25;;;7.25;;
70576;SDS011;58138;43.138;24.702;2022-08-14T11:15:26;9.18;;;7.75;;
70576;SDS011;58138;43.138;24.702;2022-08-14T11:17:52;8.70;;;7.80;;
70576;SDS011;58138;43.138;24.702;2022-08-14T11:20:20;10.65;;;8.75;;
70576;SDS011;58138;43.138;24.702;2022-08-14T11:22:55;11.25;;;8.60;;
70576;SDS011;58138;43.138;24.702;2022-08-14T11:25:22;9.35;;;8.45;;
70576;SDS011;58138;43.138;24.702;2022-08-14T11:27:51;10.73;;;9.55;;
70576;SDS011;58138;43.138;24.702;2022-08-14T11:30:19;10.43;;;9.40;;
70576;SDS011;58138;43.138;24.702;2022-08-14T11:32:47;10.65;;;9.55;;
70576;SDS011;58138;43.138;24.702;2022-08-14T11:35:18;10.57;;;9.40;;
70576;SDS011;58138;43.138;24.702;2022-08-14T11:40:24;10.20;;;9.20;;
70576;SDS011;58138;43.138;24.702;2022-08-14T11:42:51;10.65;;;9.00;;
70576;SDS011;58138;43.138;24.702;2022-08-14T11:45:19;11.10;;;10.00;;
70576;SDS011;58138;43.138;24.702;2022-08-14T11:47:46;10.10;;;9.10;;
70576;SDS011;58138;43.138;24.702;2022-08-14T11:50:15;11.30;;;10.18;;
70576;SDS011;58138;43.138;24.702;2022-08-14T11:53:02;12.77;;;10.38;;
70576;SDS011;58138;43.138;24.702;2022-08-14T11:55:32;11.57;;;10.43;;
70576;SDS011;58138;43.138;24.702;2022-08-14T11:58:09;10.30;;;9.27;;
70576;SDS011;58138;43.138;24.702;2022-08-14T12:00:45;10.82;;;9.18;;
70576;SDS011;58138;43.138;24.702;2022-08-14T12:03:12;11.60;;;9.88;;
70576;SDS011;58138;43.138;24.702;2022-08-14T12:05:38;10.65;;;9.57;;
70576;SDS011;58138;43.138;24.702;2022-08-14T12:08:06;10.65;;;9.55;;
70576;SDS011;58138;43.138;24.702;2022-08-14T12:10:32;10.57;;;9.48;;
70576;SDS011;58138;43.138;24.702;2022-08-14T12:13:09;10.13;;;9.18;;
70576;SDS011;58138;43.138;24.702;2022-08-14T12:15:45;10.38;;;9.18;;
70576;SDS011;58138;43.138;24.702;2022-08-14T12:20:56;10.57;;;9.55;;
70576;SDS011;58138;43.138;24.702;2022-08-14T12:23:23;10.63;;;9.63;;
70576;SDS011;58138;43.138;24.702;2022-08-14T12:25:49;11.52;;;9.45;;
70576;SDS011;58138;43.138;24.702;2022-08-14T12:28:15;11.55;;;9.70;;
70576;SDS011;58138;43.138;24.702;2022-08-14T12:30:44;11.32;;;9.95;;
70576;SDS011;58138;43.138;24.702;2022-08-14T12:33:23;9.85;;;8.95;;
70576;SDS011;58138;43.138;24.702;2022-08-14T12:35:54;9.80;;;8.90;;
70576;SDS011;58138;43.138;24.702;2022-08-14T12:38:38;10.20;;;9.30;;
70576;SDS011;58138;43.138;24.702;2022-08-14T12:41:13;10.43;;;9.43;;
70576;SDS011;58138;43.138;24.702;2022-08-14T12:43:50;10.43;;;9.45;;
70576;SDS011;58138;43.138;24.702;2022-08-14T12:51:37;9.68;;;8.68;;
70576;SDS011;58138;43.138;24.702;2022-08-14T12:54:21;13.45;;;9.43;;
70576;SDS011;58138;43.138;24.702;2022-08-14T12:56:47;10.25;;;9.25;;
70576;SDS011;58138;43.138;24.702;2022-08-14T12:59:13;9.43;;;8.52;;
70576;SDS011;58138;43.138;24.702;2022-08-14T13:01:39;8.50;;;7.70;;
70576;SDS011;58138;43.138;24.702;2022-08-14T13:04:09;10.20;;;9.20;;
70576;SDS011;58138;43.138;24.702;2022-08-14T13:06:44;9.30;;;8.40;;
70576;SDS011;58138;43.138;24.702;2022-08-14T13:09:12;9.45;;;8.55;;
70576;SDS011;58138;43.138;24.702;2022-08-14T13:11:43;9.80;;;8.80;;
70576;SDS011;58138;43.138;24.702;2022-08-14T13:14:11;8.43;;;7.50;;
70576;SDS011;58138;43.138;24.702;2022-08-14T13:16:40;8.75;;;7.82;;
70576;SDS011;58138;43.138;24.702;2022-08-14T13:19:07;10.50;;;7.32;;
70576;SDS011;58138;43.138;24.702;2022-08-14T13:21:41;8.27;;;7.35;;
70576;SDS011;58138;43.138;24.702;2022-08-14T13:24:07;7.82;;;7.10;;
70576;SDS011;58138;43.138;24.702;2022-08-14T13:26:47;9.35;;;6.80;;
70576;SDS011;58138;43.138;24.702;2022-08-14T13:29:19;7.80;;;7.10;;
70576;SDS011;58138;43.138;24.702;2022-08-14T13:31:50;9.32;;;7.28;;
70576;SDS011;58138;43.138;24.702;2022-08-14T13:34:23;7.93;;;7.13;;
70576;SDS011;58138;43.138;24.702;2022-08-14T13:36:50;11.35;;;9.73;;
70576;SDS011;58138;43.138;24.702;2022-08-14T13:39:17;10.07;;;8.63;;
70576;SDS011;58138;43.138;24.702;2022-08-14T13:41:43;11.07;;;8.18;;
70576;SDS011;58138;43.138;24.702;2022-08-14T13:44:11;10.68;;;9.02;;
70576;SDS011;58138;43.138;24.702;2022-08-14T13:46:39;8.90;;;8.05;;
70576;SDS011;58138;43.138;24.702;2022-08-14T13:49:11;16.80;;;8.55;;
70576;SDS011;58138;43.138;24.702;2022-08-14T13:51:42;8.50;;;7.68;;
70576;SDS011;58138;43.138;24.702;2022-08-14T13:54:11;9.88;;;8.50;;
70576;SDS011;58138;43.138;24.702;2022-08-14T13:56:40;9.25;;;8.38;;
70576;SDS011;58138;43.138;24.702;2022-08-14T13:59:06;9.27;;;8.40;;
70576;SDS011;58138;43.138;24.702;2022-08-14T14:01:32;12.50;;;9.40;;
70576;SDS011;58138;43.138;24.702;2022-08-14T14:04:01;9.15;;;8.35;;
70576;SDS011;58138;43.138;24.702;2022-08-14T14:06:27;9.82;;;8.82;;
70576;SDS011;58138;43.138;24.702;2022-08-14T14:08:54;9.60;;;8.65;;
70576;SDS011;58138;43.138;24.702;2022-08-14T14:11:21;8.93;;;8.02;;
70576;SDS011;58138;43.138;24.702;2022-08-14T14:13:51;9.98;;;8.98;;
70576;SDS011;58138;43.138;24.702;2022-08-14T14:16:18;11.05;;;8.93;;
70576;SDS011;58138;43.138;24.702;2022-08-14T14:18:45;10.05;;;9.05;;
70576;SDS011;58138;43.138;24.702;2022-08-14T14:21:16;9.57;;;8.63;;
70576;SDS011;58138;43.138;24.702;2022-08-14T14:23:42;10.77;;;8.93;;
70576;SDS011;58138;43.138;24.702;2022-08-14T14:26:09;9.25;;;8.35;;
70576;SDS011;58138;43.138;24.702;2022-08-14T14:28:37;9.05;;;8.15;;
70576;SDS011;58138;43.138;24.702;2022-08-14T14:31:05;8.55;;;7.70;;
70576;SDS011;58138;43.138;24.702;2022-08-14T14:33:35;8.32;;;7.53;;
70576;SDS011;58138;43.138;24.702;2022-08-14T14:36:08;11.07;;;8.77;;
70576;SDS011;58138;43.138;24.702;2022-08-14T14:38:38;8.25;;;7.35;;
70576;SDS011;58138;43.138;24.702;2022-08-14T14:41:09;9.93;;;8.75;;
70576;SDS011;58138;43.138;24.702;2022-08-14T14:43:38;10.45;;;9.38;;
70576;SDS011;58138;43.138;24.702;2022-08-14T14:46:09;12.00;;;10.63;;
70576;SDS011;58138;43.138;24.702;2022-08-14T14:48:39;11.00;;;9.90;;
70576;SDS011;58138;43.138;24.702;2022-08-14T14:51:08;16.83;;;9.93;;
70576;SDS011;58138;43.138;24.702;2022-08-14T14:53:38;13.35;;;11.93;;
70576;SDS011;58138;43.138;24.702;2022-08-14T14:56:04;10.45;;;9.00;;
70576;SDS011;58138;43.138;24.702;2022-08-14T14:58:30;10.38;;;9.27;;
70576;SDS011;58138;43.138;24.702;2022-08-14T15:00:57;9.70;;;8.80;;
70576;SDS011;58138;43.138;24.702;2022-08-14T15:06:01;12.68;;;8.73;;
70576;SDS011;58138;43.138;24.702;2022-08-14T15:08:30;9.60;;;8.60;;
70576;SDS011;58138;43.138;24.702;2022-08-14T15:10:58;10.00;;;9.00;;
70576;SDS011;58138;43.138;24.702;2022-08-14T15:13:24;9.23;;;8.43;;
70576;SDS011;58138;43.138;24.702;2022-08-14T15:16:01;9.98;;;9.07;;
70576;SDS011;58138;43.138;24.702;2022-08-14T15:18:28;10.20;;;9.07;;
70576;SDS011;58138;43.138;24.702;2022-08-14T15:20:53;11.93;;;9.85;;
70576;SDS011;58138;43.138;24.702;2022-08-14T15:23:21;10.60;;;9.60;;
70576;SDS011;58138;43.138;24.702;2022-08-14T15:25:47;10.25;;;9.25;;
70576;SDS011;58138;43.138;24.702;2022-08-14T15:28:13;10.30;;;9.30;;
70576;SDS011;58138;43.138;24.702;2022-08-14T15:30:39;11.73;;;8.50;;
70576;SDS011;58138;43.138;24.702;2022-08-14T15:33:07;9.90;;;8.38;;
70576;SDS011;58138;43.138;24.702;2022-08-14T15:35:33;9.38;;;8.27;;
70576;SDS011;58138;43.138;24.702;2022-08-14T15:37:59;9.73;;;8.75;;
70576;SDS011;58138;43.138;24.702;2022-08-14T15:40:33;10.48;;;8.77;;
70576;SDS011;58138;43.138;24.702;2022-08-14T15:43:00;9.45;;;7.93;;
70576;SDS011;58138;43.138;24.702;2022-08-14T15:45:26;9.75;;;8.73;;
70576;SDS011;58138;43.138;24.702;2022-08-14T15:47:51;9.30;;;8.30;;
70576;SDS011;58138;43.138;24.702;2022-08-14T15:50:17;9.75;;;8.30;;
70576;SDS011;58138;43.138;24.702;2022-08-14T15:52:42;8.68;;;7.88;;
70576;SDS011;58138;43.138;24.702;2022-08-14T15:55:08;8.60;;;7.80;;
70576;SDS011;58138;43.138;24.702;2022-08-14T15:57:36;8.90;;;8.00;;
70576;SDS011;58138;43.138;24.702;2022-08-14T16:00:03;10.13;;;8.63;;
70576;SDS011;58138;43.138;24.702;2022-08-14T16:02:48;11.20;;;8.73;;
70576;SDS011;58138;43.138;24.702;2022-08-14T16:05:13;10.60;;;8.88;;
70576;SDS011;58138;43.138;24.702;2022-08-14T16:07:39;9.98;;;8.27;;
70576;SDS011;58138;43.138;24.702;2022-08-14T16:10:05;11.50;;;8.57;;
70576;SDS011;58138;43.138;24.702;2022-08-14T16:12:30;12.63;;;8.85;;
70576;SDS011;58138;43.138;24.702;2022-08-14T16:14:56;9.70;;;8.10;;
70576;SDS011;58138;43.138;24.702;2022-08-14T16:17:22;9.60;;;8.70;;
70576;SDS011;58138;43.138;24.702;2022-08-14T16:19:49;11.55;;;9.27;;
70576;SDS011;58138;43.138;24.702;2022-08-14T16:22:16;10.48;;;8.88;;
70576;SDS011;58138;43.138;24.702;2022-08-14T16:24:43;9.93;;;8.93;;
70576;SDS011;58138;43.138;24.702;2022-08-14T16:27:09;9.80;;;8.68;;
70576;SDS011;58138;43.138;24.702;2022-08-14T16:29:39;9.63;;;8.73;;
70576;SDS011;58138;43.138;24.702;2022-08-14T16:32:06;10.25;;;9.30;;
70576;SDS011;58138;43.138;24.702;2022-08-14T16:34:35;10.55;;;9.02;;
70576;SDS011;58138;43.138;24.702;2022-08-14T16:37:03;9.52;;;8.60;;
70576;SDS011;58138;43.138;24.702;2022-08-14T16:39:29;11.05;;;10.00;;
70576;SDS011;58138;43.138;24.702;2022-08-14T16:41:56;10.60;;;9.55;;
70576;SDS011;58138;43.138;24.702;2022-08-14T16:44:23;11.85;;;9.18;;